Veinticinco de Mayo, Argentina
Current Conditions -  °F | °C
As of 5:00 PM on Saturday 20 Dec 2014 (Local Time) from SAEZ Reporting Station
Scattered Clouds Scattered Clouds  
Wind Chill: 77°   Ceiling: Unl
Heat Index: 79°   Visibility: 6mi
Dew Point: 63°   Wind: 10mph
Humidity: 61%   Direction: 150°SSE
Pressure: 29.56"   Gusts: NA
Location:  35.43°S, 60.17°W
Report Text: SAEZ 202000Z 15009KT 9999 FEW035 SCT200 25/17 Q1001
Loading
Personal Weather Stations






























Interactive Weather Map New forecast layout! Learn more

10-Day Weather Forecast

Advertisements
Track Severe Weather on mobile